• Join FlightAware (Why Join?)
  • Login
  • US Flag GB Flag 
05:55 EDT


 

Airport Tracker/Info


-or-


 

Live Flight TrackerFlight Track Log ✈ N27XP ✈ 18-Dec-2013 ✈ KSOP - KPNE

Flight Track Log - Related Links

Times and Time Zones

All times are in EST time to prevent confusion due to time zone crossing. See the N27XP flight status page for this flight to view local times or setup timezone preferences in your user account.

Time Position Orientation Groundspeed Altitude Reporting Facility
EST Latitude Longitude Course Direction KTS MPH feet Rate Location/Type
09:41 35.3356 -79.2761 36° Northeast 242 278 5,400  Level Washington Center
09:42 35.4000 -79.2206 35° Northeast 271 312 8,100 2,400 Climbing Washington Center
09:43 35.4581 -79.1672 37° Northeast 284 327 10,200 1,740 Climbing Washington Center
09:44 35.5394 -79.0917 37° Northeast 313 360 11,600 1,440 Climbing Washington Center
09:45 35.6904 -79.0084 36° Northeast  Level Estimated
09:45 35.6189 -79.0183 37° Northeast 328 377 13,100  Level Washington Center
09:46 35.7003 -78.9453 36° Northeast 351 404 14,800 1,680 Climbing Washington Center
09:47 35.7858 -78.8669 37° Northeast 364 419 16,500 1,560 Climbing Washington Center
09:48 35.8608 -78.7956 38° Northeast 375 432 18,000 1,320 Climbing Washington Center
09:49 35.9500 -78.7353 29° Northeast 368 423 19,100 1,320 Climbing Washington Center
09:50 36.0472 -78.6875 22° Northeast 363 418 20,700 1,380 Climbing Washington Center
09:51 36.1383 -78.6347 25° Northeast 363 418 21,900 1,140 Climbing Washington Center
09:52 36.2336 -78.5817 24° Northeast 363 418 23,100 1,080 Climbing Washington Center
09:53 36.3328 -78.5286 23° Northeast 368 423 24,100 1,080 Climbing Washington Center
09:54 36.4283 -78.4703 26° Northeast 373 429 25,300 960 Climbing Washington Center
09:55 36.5275 -78.4172 23° Northeast 378 435 26,100 300 Climbing Washington Center
09:56 36.6292 -78.3586 25° Northeast 384 442 26,000 60 Descending Washington Center
09:57 36.7347 -78.2950 26° Northeast 396 456 26,300 600 Climbing Washington Center
09:58 36.8383 -78.2311 26° Northeast 407 468 27,200 960 Climbing Washington Center
09:59 36.9589 -78.1625 24° Northeast 407 468 28,300 840 Climbing Washington Center
10:00 37.0458 -78.0925 33° Northeast 414 476 29,100 840 Climbing Washington Center
10:01 37.1667 -77.9950 33° Northeast 425 489 30,200 960 Climbing Washington Center
10:02 37.2664 -77.9172 32° Northeast 430 495 31,000 360 Climbing Washington Center
10:03 37.3703 -77.8339 33° Northeast 435 501 31,000  Level Washington Center
10:04 37.4739 -77.7508 32° Northeast 435 501 31,000  Level Washington Center
10:05 37.5797 -77.6672 32° Northeast 435 501 31,000  Level Washington Center
10:06 37.6875 -77.5808 32° Northeast 435 501 31,000 -540 Level Washington Center
10:07 37.8017 -77.4894 32° Northeast 440 506 30,000 -1,080 Descending Washington Center
10:08 37.9050 -77.4050 33° Northeast 440 506 28,900 -1,080 Descending Washington Center
10:09 38.0086 -77.3206 33° Northeast 440 506 27,900 -1,020 Descending Washington Center
10:10 38.0972 -77.2486 33° Northeast 434 499 26,900 -1,080 Descending Washington Center
10:11 38.2069 -77.1561 34° Northeast 429 494 25,800 -960 Descending Washington Center
10:12 38.2869 -77.0889 33° Northeast 429 494 25,000 -960 Descending Washington Center
10:13 38.4047 -76.9986 31° Northeast 434 499 24,000 -540 Descending Washington Center
10:14 38.5078 -76.9131 33° Northeast 440 506 24,000  Level Washington Center
10:15 38.6131 -76.8244 33° Northeast 440 506 24,000 -240 Level Washington Center
10:16 38.6997 -76.7036 47° Northeast 440 506 23,600 -720 Descending Washington Center
10:17 38.7383 -76.5792 68° East 447 514 22,700 -1,260 Descending Washington Center
10:18 38.7794 -76.3853 75° East 454 522 21,200 -2,040 Descending Washington Center
10:19 38.8094 -76.2364 75° East 444 511 18,700 -2,580 Descending Washington Center
10:20 38.8436 -76.0847 74° East 417 480 16,000 -1,920 Descending Washington Center
10:21 38.8711 -75.9517 75° East 396 456 15,000 -600 Descending Washington Center
10:22 38.9069 -75.8236 70° East 383 441 14,900 -720 Descending Washington Center
10:23 38.9883 -75.7492 35° Northeast 350 403 13,600 -1,200 Descending Washington Center
10:24 39.0656 -75.6853 33° Northeast 333 383 12,500 -660 Descending Washington Center
10:25 39.2000 -75.6667 North 291 335 12,000 -240 Descending Philadelphia TRACON
10:26 39.2833 -75.6500 North 288 331 12,000  Level Philadelphia TRACON
10:27 39.3500 -75.6167 21° North 282 325 12,000  Level Philadelphia TRACON
10:28 39.4167 -75.5833 21° North 286 329 12,000  Level Philadelphia TRACON
10:29 39.4833 -75.5000 44° Northeast 301 346 12,000  Level Philadelphia TRACON
10:30 39.5333 -75.4167 52° Northeast 308 354 12,000  Level Philadelphia TRACON
10:31 39.6000 -75.3500 38° Northeast 313 360 12,000 -480 Level Philadelphia TRACON
10:32 39.6500 -75.2667 52° Northeast 312 359 11,100 -960 Descending Philadelphia TRACON
10:33 39.7167 -75.1833 44° Northeast 297 342 10,100 -1,020 Descending Philadelphia TRACON
10:34 39.7833 -75.1167 38° Northeast 307 353 9,100 -1,080 Descending Philadelphia TRACON
10:35 39.8333 -75.0333 52° Northeast 296 341 8,000 -600 Descending Philadelphia TRACON
10:36 39.8833 -74.9667 46° Northeast 269 310 8,000 -780 Level Philadelphia TRACON
10:37 39.9500 -74.9167 30° Northeast 264 304 6,600 -1,560 Descending Philadelphia TRACON
10:38 40.0167 -74.8667 30° Northeast 230 265 4,800 -1,260 Descending Philadelphia TRACON
10:39 40.0667 -74.8167 37° Northeast 206 237 4,000 -1,140 Descending Philadelphia TRACON
10:40 40.1167 -74.8167 360° North 176 203 2,500 -1,080 Descending Philadelphia TRACON
10:41 40.1167 -74.8500 270° West 147 169 2,000 -660 Descending Philadelphia TRACON
10:42 40.1167 -74.9167 270° West 153 176 1,300 -600 Descending Philadelphia TRACON
10:43 40.1167 -74.9667 270° West 123 142 700 -600 Descending Philadelphia TRACON